Time;durP1;ratioP1;P1;durP2;ratioP2;P2;SDS_P1;SDS_P2;PMS_P1;PMS_P2;Temp;Humidity;BMP_temperature;BMP_pressure;BME280_temperature;BME280_humidity;BME280_pressure;Samples;Min_cycle;Max_cycle;Signal;HPM_P1;HPM_P2
2023/06/29 00:01:23;;;;;;;;;;;24.50;56.00;;;;;;5071804;28;19920;-55
2023/06/29 00:03:48;;;;;;;;;;;24.50;56.00;;;;;;5072043;28;20376;-55
2023/06/29 00:06:14;;;;;;;;;;;24.50;55.90;;;;;;5065943;28;19916;-55
2023/06/29 00:08:40;;;;;;;;;;;24.50;56.00;;;;;;5071307;28;19935;-54
2023/06/29 00:11:07;;;;;;;;;;;24.50;56.10;;;;;;5070593;28;20330;-56
2023/06/29 00:13:33;;;;;;;;;;;24.50;56.00;;;;;;5071323;28;19920;-55
2023/06/29 00:15:58;;;;;;;;;;;24.60;56.00;;;;;;5070965;28;19916;-55
2023/06/29 00:18:27;;;;;;;;;;;24.50;56.10;;;;;;5079798;28;20334;-55
2023/06/29 00:20:54;;;;;;;;;;;24.60;55.90;;;;;;5071556;28;19955;-55
2023/06/29 00:23:20;;;;;;;;;;;24.60;56.10;;;;;;5071084;28;19917;-56
2023/06/29 00:25:46;;;;;;;;;;;24.50;56.60;;;;;;5070535;28;19962;-55
2023/06/29 00:28:15;;;;;;;;;;;24.50;56.30;;;;;;5070505;28;19938;-55
2023/06/29 00:30:40;;;;;;;;;;;24.40;56.50;;;;;;5067604;28;19917;-55
2023/06/29 00:33:06;;;;;;;;;;;24.50;56.40;;;;;;5071718;28;19999;-55
2023/06/29 00:35:31;;;;;;;;;;;24.50;56.50;;;;;;5071652;28;19913;-54
2023/06/29 00:37:57;;;;;;;;;;;24.40;56.50;;;;;;5069212;28;19916;-55
2023/06/29 00:40:22;;;;;;;;;;;24.40;56.50;;;;;;5071401;28;19931;-55
2023/06/29 00:42:48;;;;;;;;;;;24.50;56.50;;;;;;5071085;28;19912;-55
2023/06/29 00:45:14;;;;;;;;;;;24.40;56.70;;;;;;5070177;28;19912;-56
2023/06/29 00:47:39;;;;;;;;;;;24.40;56.40;;;;;;5064381;28;20018;-55
2023/06/29 00:50:05;;;;;;;;;;;24.40;56.70;;;;;;5071557;28;19916;-55
2023/06/29 00:52:30;;;;;;;;;;;24.40;56.50;;;;;;5070381;28;19939;-55
2023/06/29 00:54:56;;;;;;;;;;;24.40;57.20;;;;;;5075058;28;19912;-54
2023/06/29 00:57:22;;;;;;;;;;;24.40;56.50;;;;;;5066850;28;20539;-54
2023/06/29 00:59:47;;;;;;;;;;;24.40;56.70;;;;;;5075290;28;19951;-54
2023/06/29 01:02:15;;;;;;;;;;;24.40;56.80;;;;;;5075180;28;19918;-54
2023/06/29 01:04:41;;;;;;;;;;;24.40;56.90;;;;;;5074730;28;20343;-54
2023/06/29 01:07:08;;;;;;;;;;;24.40;56.80;;;;;;5068918;28;19927;-55
2023/06/29 01:09:34;;;;;;;;;;;24.40;56.50;;;;;;5074393;28;20296;-54
2023/06/29 01:11:59;;;;;;;;;;;24.50;57.10;;;;;;5074055;28;19916;-54
2023/06/29 01:14:25;;;;;;;;;;;24.40;57.10;;;;;;5075154;28;19912;-54
2023/06/29 01:16:51;;;;;;;;;;;24.40;57.10;;;;;;5072301;28;20258;-54
2023/06/29 01:19:18;;;;;;;;;;;24.30;57.30;;;;;;5074617;28;19927;-54
2023/06/29 01:21:44;;;;;;;;;;;24.30;57.50;;;;;;5100835;28;19913;-55
2023/06/29 01:24:09;;;;;;;;;;;24.20;57.50;;;;;;5094929;28;19924;-55
2023/06/29 01:26:37;;;;;;;;;;;24.30;57.40;;;;;;5058129;28;20292;-53
2023/06/29 01:29:04;;;;;;;;;;;24.30;57.40;;;;;;5074611;28;19924;-54
2023/06/29 01:31:29;;;;;;;;;;;24.30;57.10;;;;;;5074166;28;19999;-54
2023/06/29 01:33:55;;;;;;;;;;;24.40;57.60;;;;;;5073836;28;19952;-54
2023/06/29 01:36:21;;;;;;;;;;;24.40;57.40;;;;;;5070719;28;20420;-55
2023/06/29 01:38:57;;;;;;;;;;;24.40;57.40;;;;;;5102158;28;19917;-54
2023/06/29 01:41:23;;;;;;;;;;;24.40;57.20;;;;;;5066912;28;19952;-54
2023/06/29 01:43:48;;;;;;;;;;;24.40;57.40;;;;;;5099026;28;19952;-54
2023/06/29 01:46:13;;;;;;;;;;;24.40;57.60;;;;;;5068437;28;19994;-55
2023/06/29 01:48:39;;;;;;;;;;;24.40;57.60;;;;;;5074630;28;19920;-54
2023/06/29 01:51:06;;;;;;;;;;;24.40;57.70;;;;;;5073707;28;19916;-54
2023/06/29 01:53:34;;;;;;;;;;;24.40;57.30;;;;;;5069531;28;21300;-55
2023/06/29 01:56:00;;;;;;;;;;;24.40;57.50;;;;;;5071287;28;19912;-54
2023/06/29 01:58:25;;;;;;;;;;;24.40;57.60;;;;;;5066318;28;20300;-54
2023/06/29 02:00:51;;;;;;;;;;;24.30;57.80;;;;;;5056922;28;19917;-54
2023/06/29 02:03:16;;;;;;;;;;;24.30;57.90;;;;;;5073717;28;19912;-55
2023/06/29 02:05:42;;;;;;;;;;;24.30;57.90;;;;;;5074518;28;20333;-54
2023/06/29 02:08:07;;;;;;;;;;;24.30;57.80;;;;;;5070831;28;19920;-54
2023/06/29 02:10:33;;;;;;;;;;;24.40;57.80;;;;;;5075532;28;19999;-54
2023/06/29 02:12:58;;;;;;;;;;;24.40;58.00;;;;;;5074068;28;19916;-56
2023/06/29 02:15:23;;;;;;;;;;;24.30;57.90;;;;;;5100752;28;19916;-55
2023/06/29 02:17:49;;;;;;;;;;;24.30;58.10;;;;;;5071828;28;20377;-55
2023/06/29 02:20:17;;;;;;;;;;;24.30;58.50;;;;;;5073733;28;20013;-55
2023/06/29 02:22:42;;;;;;;;;;;24.20;58.50;;;;;;5073022;28;19916;-55
2023/06/29 02:25:09;;;;;;;;;;;24.20;58.50;;;;;;5073954;28;19923;-55
2023/06/29 02:27:35;;;;;;;;;;;24.20;58.50;;;;;;5069817;28;19916;-55
2023/06/29 02:30:00;;;;;;;;;;;24.10;58.80;;;;;;5073878;28;20292;-55
2023/06/29 02:32:26;;;;;;;;;;;24.10;59.00;;;;;;5073563;28;19974;-54
2023/06/29 02:34:51;;;;;;;;;;;24.10;58.70;;;;;;5072164;28;19923;-55
2023/06/29 02:37:16;;;;;;;;;;;24.10;59.00;;;;;;5068675;28;19974;-54
2023/06/29 02:39:42;;;;;;;;;;;24.10;59.00;;;;;;5072639;28;20381;-54
2023/06/29 02:42:07;;;;;;;;;;;24.10;59.00;;;;;;5073283;28;20285;-55
2023/06/29 02:44:33;;;;;;;;;;;24.10;59.00;;;;;;5067785;28;19958;-55
2023/06/29 02:46:58;;;;;;;;;;;24.20;59.00;;;;;;5071698;28;19920;-55
2023/06/29 02:49:24;;;;;;;;;;;24.10;59.00;;;;;;5072864;28;19927;-54
2023/06/29 02:51:49;;;;;;;;;;;24.10;59.00;;;;;;5072512;28;19964;-55
2023/06/29 02:54:15;;;;;;;;;;;24.10;59.20;;;;;;5053211;28;19951;-55
2023/06/29 02:56:40;;;;;;;;;;;24.10;59.20;;;;;;5060836;28;19920;-55
2023/06/29 02:59:06;;;;;;;;;;;24.10;59.40;;;;;;5067341;28;19931;-55
2023/06/29 03:01:31;;;;;;;;;;;24.00;59.40;;;;;;5073028;28;19912;-55
2023/06/29 03:03:57;;;;;;;;;;;24.10;59.50;;;;;;5071498;28;19920;-55
2023/06/29 03:06:22;;;;;;;;;;;24.10;59.60;;;;;;5070986;28;20396;-56
2023/06/29 03:08:48;;;;;;;;;;;24.00;59.60;;;;;;5072692;28;19942;-56
2023/06/29 03:11:14;;;;;;;;;;;24.00;59.30;;;;;;5072839;28;19924;-55
2023/06/29 03:13:39;;;;;;;;;;;24.00;59.60;;;;;;5071049;28;19916;-55
2023/06/29 03:16:04;;;;;;;;;;;24.00;59.50;;;;;;5072217;28;19912;-56
2023/06/29 03:18:30;;;;;;;;;;;24.10;59.60;;;;;;5069998;28;19912;-56
2023/06/29 03:20:56;;;;;;;;;;;24.00;59.60;;;;;;5072169;28;19913;-55
2023/06/29 03:23:21;;;;;;;;;;;24.10;59.60;;;;;;5054416;28;20375;-55
2023/06/29 03:25:48;;;;;;;;;;;24.10;59.60;;;;;;5059788;28;19923;-55
2023/06/29 03:28:13;;;;;;;;;;;24.10;59.70;;;;;;5071193;28;20280;-56
2023/06/29 03:30:39;;;;;;;;;;;24.10;59.70;;;;;;5072877;28;19916;-55
2023/06/29 03:33:04;;;;;;;;;;;24.10;59.60;;;;;;5070969;28;20003;-56
2023/06/29 03:35:30;;;;;;;;;;;24.10;59.70;;;;;;5069884;28;19939;-56
2023/06/29 03:37:55;;;;;;;;;;;24.10;59.40;;;;;;5071262;28;19918;-55
2023/06/29 03:40:21;;;;;;;;;;;24.10;59.60;;;;;;5072619;28;19909;-55
2023/06/29 03:42:46;;;;;;;;;;;24.10;59.70;;;;;;5072181;28;19996;-56
2023/06/29 03:45:12;;;;;;;;;;;24.10;59.80;;;;;;5071285;28;19912;-56
2023/06/29 03:47:37;;;;;;;;;;;24.00;59.80;;;;;;5072076;28;19924;-55
2023/06/29 03:50:03;;;;;;;;;;;24.10;59.80;;;;;;5071879;28;19951;-56
2023/06/29 03:52:29;;;;;;;;;;;24.10;59.80;;;;;;5071600;28;19912;-55
2023/06/29 03:54:54;;;;;;;;;;;24.10;59.70;;;;;;5069368;28;19916;-56
2023/06/29 03:57:20;;;;;;;;;;;24.00;59.90;;;;;;5071837;28;19913;-56
2023/06/29 03:59:45;;;;;;;;;;;24.10;59.90;;;;;;5071778;28;19913;-55
2023/06/29 04:02:10;;;;;;;;;;;24.00;59.80;;;;;;5065256;28;20001;-56
2023/06/29 04:04:36;;;;;;;;;;;24.00;60.10;;;;;;5071922;28;19912;-55
2023/06/29 04:07:01;;;;;;;;;;;24.00;60.00;;;;;;5069424;28;20475;-55
2023/06/29 04:09:27;;;;;;;;;;;24.00;60.20;;;;;;5071258;28;20065;-55
2023/06/29 04:11:52;;;;;;;;;;;24.00;60.10;;;;;;5071000;28;20007;-55
2023/06/29 04:14:18;;;;;;;;;;;24.00;60.40;;;;;;5069145;28;19923;-56
2023/06/29 04:16:43;;;;;;;;;;;24.00;60.40;;;;;;5071507;28;19964;-56
2023/06/29 04:19:09;;;;;;;;;;;24.00;60.40;;;;;;5071588;28;19923;-55
2023/06/29 04:21:35;;;;;;;;;;;24.00;60.40;;;;;;5069978;28;20391;-55
2023/06/29 04:24:01;;;;;;;;;;;24.00;60.40;;;;;;5064121;28;20426;-55
2023/06/29 04:26:27;;;;;;;;;;;24.10;60.30;;;;;;5071167;28;19916;-55
2023/06/29 04:28:59;;;;;;;;;;;24.00;60.30;;;;;;5070422;28;20393;-55
2023/06/29 04:31:24;;;;;;;;;;;24.00;60.50;;;;;;5072060;28;19913;-55
2023/06/29 04:33:50;;;;;;;;;;;24.00;60.70;;;;;;5067747;28;19913;-55
2023/06/29 04:36:17;;;;;;;;;;;24.00;60.60;;;;;;5071002;28;19923;-56
2023/06/29 04:38:42;;;;;;;;;;;24.00;61.00;;;;;;5070882;28;19913;-55
2023/06/29 04:41:09;;;;;;;;;;;24.00;61.00;;;;;;5071518;28;19970;-56
2023/06/29 04:43:36;;;;;;;;;;;23.90;61.20;;;;;;5070293;28;19921;-55
2023/06/29 04:46:02;;;;;;;;;;;23.80;61.30;;;;;;5070806;28;19920;-55
2023/06/29 04:48:37;;;;;;;;;;;23.90;61.30;;;;;;5072489;28;19920;-55
2023/06/29 04:51:04;;;;;;;;;;;23.90;61.00;;;;;;5066318;28;19955;-55
2023/06/29 04:53:33;;;;;;;;;;;23.90;61.20;;;;;;5059160;28;19917;-56
2023/06/29 04:55:59;;;;;;;;;;;23.90;61.50;;;;;;5068072;28;19916;-56
2023/06/29 04:58:24;;;;;;;;;;;23.80;61.30;;;;;;5065259;28;19969;-55
2023/06/29 05:00:50;;;;;;;;;;;23.90;61.70;;;;;;5071314;28;20389;-55
2023/06/29 05:03:15;;;;;;;;;;;23.90;61.60;;;;;;5067663;28;19917;-56
2023/06/29 05:05:41;;;;;;;;;;;23.90;61.60;;;;;;5055381;28;19919;-55
2023/06/29 05:08:06;;;;;;;;;;;24.00;61.50;;;;;;5096101;28;20027;-55
2023/06/29 05:10:32;;;;;;;;;;;23.90;61.60;;;;;;5071151;28;19912;-56
2023/06/29 05:12:57;;;;;;;;;;;23.90;61.90;;;;;;5065405;28;19923;-55
2023/06/29 05:15:23;;;;;;;;;;;23.90;61.90;;;;;;5055370;28;20296;-55
2023/06/29 05:17:48;;;;;;;;;;;23.80;61.90;;;;;;5083522;28;19912;-55
2023/06/29 05:20:14;;;;;;;;;;;23.80;61.90;;;;;;5061170;28;19923;-56
2023/06/29 05:22:39;;;;;;;;;;;23.80;62.20;;;;;;5062939;28;20330;-56
2023/06/29 05:25:05;;;;;;;;;;;23.90;62.30;;;;;;5066924;28;19939;-55
2023/06/29 05:27:30;;;;;;;;;;;23.90;62.20;;;;;;5093670;28;19912;-56
2023/06/29 05:29:56;;;;;;;;;;;23.90;62.10;;;;;;5069609;28;19917;-55
2023/06/29 05:32:21;;;;;;;;;;;23.90;62.10;;;;;;5062795;28;20003;-55
2023/06/29 05:34:47;;;;;;;;;;;23.80;62.30;;;;;;5065728;28;20356;-56
2023/06/29 05:37:12;;;;;;;;;;;23.80;62.30;;;;;;5070182;28;19920;-56
2023/06/29 05:39:38;;;;;;;;;;;23.90;62.30;;;;;;5072372;28;19916;-56
2023/06/29 05:42:03;;;;;;;;;;;23.90;62.30;;;;;;5074911;28;19912;-56
2023/06/29 05:44:29;;;;;;;;;;;24.00;62.10;;;;;;5072211;28;19924;-55
2023/06/29 05:46:54;;;;;;;;;;;24.00;61.90;;;;;;5068721;28;19932;-55
2023/06/29 05:49:20;;;;;;;;;;;24.00;62.10;;;;;;5074154;28;19939;-56
2023/06/29 05:51:45;;;;;;;;;;;24.00;61.90;;;;;;5073980;28;19919;-57
2023/06/29 05:54:10;;;;;;;;;;;24.00;62.10;;;;;;5073763;28;19913;-56
2023/06/29 05:56:36;;;;;;;;;;;23.90;62.30;;;;;;5065030;28;19927;-55
2023/06/29 05:59:02;;;;;;;;;;;23.90;62.40;;;;;;5070222;28;20199;-55
2023/06/29 06:01:27;;;;;;;;;;;23.80;62.50;;;;;;5068097;28;19913;-56
2023/06/29 06:03:54;;;;;;;;;;;23.90;62.60;;;;;;5068162;28;19913;-55
2023/06/29 06:06:20;;;;;;;;;;;23.80;62.60;;;;;;5067361;28;19916;-56
2023/06/29 06:08:45;;;;;;;;;;;23.80;62.90;;;;;;5066606;28;19923;-55
2023/06/29 06:11:11;;;;;;;;;;;23.80;62.80;;;;;;5074742;28;19912;-55
2023/06/29 06:13:36;;;;;;;;;;;23.80;62.80;;;;;;5074237;28;19909;-56
2023/06/29 06:16:04;;;;;;;;;;;23.70;63.00;;;;;;5062120;28;20400;-55
2023/06/29 06:18:30;;;;;;;;;;;23.70;63.10;;;;;;5054047;28;19940;-56
2023/06/29 06:20:55;;;;;;;;;;;23.80;62.90;;;;;;5069458;28;19974;-56
2023/06/29 06:23:21;;;;;;;;;;;23.80;62.90;;;;;;5097766;28;19921;-55
2023/06/29 06:25:46;;;;;;;;;;;23.90;62.80;;;;;;5059616;28;19920;-56
2023/06/29 06:28:12;;;;;;;;;;;23.80;62.70;;;;;;5066730;28;19952;-56
2023/06/29 06:30:38;;;;;;;;;;;23.90;62.80;;;;;;5064596;28;19923;-54
2023/06/29 06:33:04;;;;;;;;;;;23.90;62.50;;;;;;5064785;28;19956;-55
2023/06/29 06:35:29;;;;;;;;;;;23.90;62.20;;;;;;5070692;28;20411;-56
2023/06/29 06:37:55;;;;;;;;;;;24.00;62.40;;;;;;5083602;28;20189;-56
2023/06/29 06:40:21;;;;;;;;;;;24.00;62.30;;;;;;5069677;28;19920;-56
2023/06/29 06:42:46;;;;;;;;;;;24.00;62.30;;;;;;5065529;28;20423;-56
2023/06/29 06:45:13;;;;;;;;;;;24.00;62.30;;;;;;5058578;28;19996;-55
2023/06/29 06:47:39;;;;;;;;;;;23.90;62.30;;;;;;5069258;28;19971;-56
2023/06/29 06:50:04;;;;;;;;;;;23.90;62.40;;;;;;5069448;28;19963;-56
2023/06/29 06:52:30;;;;;;;;;;;24.00;62.50;;;;;;5052734;28;19962;-56
2023/06/29 06:54:59;;;;;;;;;;;24.00;62.20;;;;;;5068001;28;19932;-56
2023/06/29 06:57:24;;;;;;;;;;;24.00;62.10;;;;;;5061243;28;19913;-55
2023/06/29 06:59:49;;;;;;;;;;;24.10;61.90;;;;;;5057514;28;20353;-55
2023/06/29 07:02:15;;;;;;;;;;;24.10;62.00;;;;;;5062790;28;19936;-54
2023/06/29 07:04:40;;;;;;;;;;;24.10;62.00;;;;;;5065250;28;19913;-54
2023/06/29 07:07:06;;;;;;;;;;;24.10;61.90;;;;;;5062856;28;19913;-55
2023/06/29 07:09:32;;;;;;;;;;;24.10;62.20;;;;;;5071850;28;19912;-55
2023/06/29 07:11:58;;;;;;;;;;;24.10;62.20;;;;;;5067635;28;19927;-54
2023/06/29 07:14:24;;;;;;;;;;;24.10;62.40;;;;;;5063904;28;19913;-54
2023/06/29 07:16:49;;;;;;;;;;;24.10;62.20;;;;;;5061592;28;19938;-55
2023/06/29 07:19:15;;;;;;;;;;;24.10;62.30;;;;;;5060970;28;19912;-54
2023/06/29 07:21:40;;;;;;;;;;;24.10;62.50;;;;;;5068776;28;19912;-55
2023/06/29 07:24:06;;;;;;;;;;;24.10;62.40;;;;;;5085363;28;19917;-54
2023/06/29 07:26:31;;;;;;;;;;;24.10;62.30;;;;;;5060070;28;19919;-54
2023/06/29 07:28:57;;;;;;;;;;;24.10;62.30;;;;;;5059778;28;19932;-53
2023/06/29 07:31:25;;;;;;;;;;;24.10;62.50;;;;;;5055538;28;19917;-54
2023/06/29 07:33:54;;;;;;;;;;;24.10;62.50;;;;;;5063108;28;19913;-54
2023/06/29 07:36:23;;;;;;;;;;;24.20;62.50;;;;;;5061445;28;19928;-54
2023/06/29 07:38:49;;;;;;;;;;;24.10;62.40;;;;;;5063464;28;19974;-55
2023/06/29 07:41:14;;;;;;;;;;;24.20;61.90;;;;;;5094502;28;19920;-55
2023/06/29 07:43:40;;;;;;;;;;;24.30;62.20;;;;;;5068225;28;19970;-54
2023/06/29 07:46:06;;;;;;;;;;;24.30;62.10;;;;;;5065589;28;20040;-54
2023/06/29 07:48:31;;;;;;;;;;;24.30;62.70;;;;;;5058011;28;20011;-55
2023/06/29 07:50:57;;;;;;;;;;;24.30;62.40;;;;;;5058320;28;19967;-55
2023/06/29 07:53:22;;;;;;;;;;;24.20;62.20;;;;;;5064115;28;20284;-54
2023/06/29 07:55:48;;;;;;;;;;;24.20;62.60;;;;;;5068096;28;19916;-55
2023/06/29 07:58:13;;;;;;;;;;;24.20;62.70;;;;;;5059506;28;19912;-54
2023/06/29 08:00:39;;;;;;;;;;;24.20;63.10;;;;;;5062454;28;19937;-57
2023/06/29 08:03:05;;;;;;;;;;;24.20;63.10;;;;;;5072023;28;19934;-55
2023/06/29 08:05:30;;;;;;;;;;;24.20;63.20;;;;;;5069241;28;19916;-55
2023/06/29 08:07:55;;;;;;;;;;;24.10;63.60;;;;;;5063683;28;20494;-54
2023/06/29 08:10:21;;;;;;;;;;;24.00;63.70;;;;;;5059049;28;19920;-55
2023/06/29 08:12:47;;;;;;;;;;;24.10;63.60;;;;;;5055685;28;19961;-55
2023/06/29 08:15:12;;;;;;;;;;;24.10;63.10;;;;;;5065670;28;20283;-54
2023/06/29 08:17:38;;;;;;;;;;;24.20;63.30;;;;;;5066488;28;20448;-55
2023/06/29 08:20:05;;;;;;;;;;;24.20;63.70;;;;;;5071742;28;19954;-55
2023/06/29 08:22:31;;;;;;;;;;;24.00;64.10;;;;;;5071116;28;19913;-54
2023/06/29 08:24:56;;;;;;;;;;;24.00;63.80;;;;;;5062532;28;19912;-55
2023/06/29 08:27:22;;;;;;;;;;;24.10;64.00;;;;;;5063816;28;19916;-54
2023/06/29 08:29:47;;;;;;;;;;;24.20;63.60;;;;;;5058750;28;19924;-55
2023/06/29 08:32:13;;;;;;;;;;;24.20;63.70;;;;;;5071493;28;19913;-54
2023/06/29 08:34:38;;;;;;;;;;;24.10;63.40;;;;;;5069359;28;20009;-55
2023/06/29 08:37:04;;;;;;;;;;;24.10;63.70;;;;;;5068849;28;19920;-56
2023/06/29 08:39:30;;;;;;;;;;;24.10;63.90;;;;;;5064750;28;19995;-55
2023/06/29 08:41:55;;;;;;;;;;;24.10;63.90;;;;;;5064732;28;19913;-55
2023/06/29 08:44:22;;;;;;;;;;;24.10;63.50;;;;;;5089487;28;19909;-55
2023/06/29 08:46:47;;;;;;;;;;;24.20;63.50;;;;;;5071129;28;19924;-55
2023/06/29 08:49:13;;;;;;;;;;;24.10;63.90;;;;;;5069599;28;19932;-55
2023/06/29 08:51:39;;;;;;;;;;;24.10;64.00;;;;;;5065480;28;19923;-55
2023/06/29 08:54:04;;;;;;;;;;;24.10;64.00;;;;;;5053616;28;19958;-56
2023/06/29 08:56:30;;;;;;;;;;;24.10;64.20;;;;;;5071384;28;19913;-54
2023/06/29 08:58:55;;;;;;;;;;;24.10;64.30;;;;;;5071272;28;19908;-55
2023/06/29 09:01:21;;;;;;;;;;;24.10;64.10;;;;;;5071083;28;20016;-55
2023/06/29 09:03:47;;;;;;;;;;;24.10;63.70;;;;;;5064102;28;19917;-55
2023/06/29 09:06:14;;;;;;;;;;;24.20;63.80;;;;;;5065030;28;20266;-55
2023/06/29 09:08:39;;;;;;;;;;;24.20;64.00;;;;;;5059342;28;20513;-55
2023/06/29 09:11:05;;;;;;;;;;;24.10;63.90;;;;;;5062924;28;19909;-54
2023/06/29 09:13:33;;;;;;;;;;;24.10;64.10;;;;;;5071202;28;20012;-54
2023/06/29 09:16:00;;;;;;;;;;;24.10;64.10;;;;;;5072381;28;20183;-55
2023/06/29 09:18:26;;;;;;;;;;;24.10;63.60;;;;;;5070698;28;20342;-55
2023/06/29 09:20:55;;;;;;;;;;;24.20;63.50;;;;;;5075081;28;20291;-55
2023/06/29 09:23:20;;;;;;;;;;;24.20;63.60;;;;;;5078493;28;20427;-56
2023/06/29 09:25:46;;;;;;;;;;;24.30;63.50;;;;;;5071605;28;19913;-55
2023/06/29 09:28:12;;;;;;;;;;;24.30;63.10;;;;;;5090368;28;19920;-54
2023/06/29 09:30:38;;;;;;;;;;;24.40;62.90;;;;;;5106233;28;19915;-55
2023/06/29 09:33:07;;;;;;;;;;;24.40;62.60;;;;;;5073306;28;19920;-55
2023/06/29 09:35:33;;;;;;;;;;;24.50;62.80;;;;;;5074312;28;20003;-55
2023/06/29 09:38:00;;;;;;;;;;;24.50;62.20;;;;;;5091268;28;20046;-55
2023/06/29 09:40:25;;;;;;;;;;;24.50;62.50;;;;;;5071616;28;19982;-55
2023/06/29 09:42:51;;;;;;;;;;;24.50;62.60;;;;;;5068798;28;20478;-55
2023/06/29 09:45:16;;;;;;;;;;;24.50;62.40;;;;;;5073258;28;19946;-55
2023/06/29 09:47:47;;;;;;;;;;;24.50;62.40;;;;;;5075029;28;19920;-55
2023/06/29 09:50:17;;;;;;;;;;;24.60;62.30;;;;;;5074401;28;20380;-55
2023/06/29 09:52:44;;;;;;;;;;;24.50;62.20;;;;;;5061515;28;19948;-55
2023/06/29 09:55:10;;;;;;;;;;;24.40;62.60;;;;;;5069501;28;19940;-55
2023/06/29 09:57:36;;;;;;;;;;;24.40;62.60;;;;;;5074045;28;19909;-55
2023/06/29 10:00:09;;;;;;;;;;;24.40;62.80;;;;;;5073597;28;20394;-55
2023/06/29 10:02:34;;;;;;;;;;;24.40;62.50;;;;;;5080808;28;20403;-55
2023/06/29 10:05:00;;;;;;;;;;;24.40;62.40;;;;;;5070740;28;19948;-55
2023/06/29 10:07:25;;;;;;;;;;;24.50;62.30;;;;;;5073546;28;19912;-55
2023/06/29 10:09:51;;;;;;;;;;;24.50;62.30;;;;;;5070222;28;20284;-55
2023/06/29 10:12:17;;;;;;;;;;;24.50;62.00;;;;;;5073705;28;20276;-55
2023/06/29 10:14:43;;;;;;;;;;;24.50;62.10;;;;;;5071113;28;19912;-55
2023/06/29 10:17:11;;;;;;;;;;;24.50;61.90;;;;;;5067105;28;19956;-55
2023/06/29 10:19:36;;;;;;;;;;;24.50;62.10;;;;;;5056632;28;20140;-54
2023/06/29 10:22:03;;;;;;;;;;;24.50;62.30;;;;;;5062434;28;19912;-55
2023/06/29 10:24:30;;;;;;;;;;;24.50;62.30;;;;;;5102669;27;20261;-54
2023/06/29 10:26:56;;;;;;;;;;;24.60;62.30;;;;;;5101820;27;19966;-54
2023/06/29 10:29:21;;;;;;;;;;;24.60;62.60;;;;;;5097863;27;19947;-54
2023/06/29 10:31:47;;;;;;;;;;;24.50;62.30;;;;;;5057832;28;20279;-54
2023/06/29 10:34:13;;;;;;;;;;;24.40;62.40;;;;;;5064033;28;20353;-54
2023/06/29 10:36:45;;;;;;;;;;;24.30;62.70;;;;;;5066309;28;20123;-55
2023/06/29 10:39:30;;;;;;;;;;;24.30;62.80;;;;;;5054192;28;19963;-53
2023/06/29 10:41:55;;;;;;;;;;;24.30;62.90;;;;;;5067007;28;19912;-54
2023/06/29 10:44:21;;;;;;;;;;;24.30;63.40;;;;;;5063822;28;19936;-55
2023/06/29 10:46:47;;;;;;;;;;;24.20;63.40;;;;;;5098336;27;19931;-55
2023/06/29 10:49:25;;;;;;;;;;;24.30;63.40;;;;;;5058758;28;19920;-53
2023/06/29 10:51:54;;;;;;;;;;;24.30;63.20;;;;;;5058155;28;19974;-53
2023/06/29 10:54:26;;;;;;;;;;;24.30;62.90;;;;;;5105256;28;20652;-53
2023/06/29 10:57:01;;;;;;;;;;;24.40;62.90;;;;;;5060222;28;19920;-54
2023/06/29 10:59:31;;;;;;;;;;;24.30;62.60;;;;;;5064078;28;20047;-54
2023/06/29 11:01:57;;;;;;;;;;;24.40;62.60;;;;;;5071152;28;19916;-53
2023/06/29 11:04:23;;;;;;;;;;;24.30;62.70;;;;;;5067934;28;19919;-53
2023/06/29 11:06:48;;;;;;;;;;;24.30;62.70;;;;;;5056747;28;19927;-53
2023/06/29 11:09:14;;;;;;;;;;;24.30;62.90;;;;;;5061521;28;19920;-54
2023/06/29 11:11:40;;;;;;;;;;;24.20;63.20;;;;;;5065582;28;20011;-54
2023/06/29 11:14:06;;;;;;;;;;;24.10;63.40;;;;;;5063407;28;19920;-54
2023/06/29 11:16:32;;;;;;;;;;;24.10;63.40;;;;;;5059553;28;19956;-54
2023/06/29 11:19:00;;;;;;;;;;;24.10;63.40;;;;;;5066045;28;19963;-53
2023/06/29 11:21:25;;;;;;;;;;;24.20;63.40;;;;;;5063015;28;19916;-54
2023/06/29 11:23:51;;;;;;;;;;;24.20;63.50;;;;;;5056853;28;20377;-54
2023/06/29 11:26:16;;;;;;;;;;;24.20;63.30;;;;;;5060681;28;20343;-54
2023/06/29 11:28:42;;;;;;;;;;;24.20;63.20;;;;;;5060430;28;20339;-54
2023/06/29 11:31:07;;;;;;;;;;;24.30;63.20;;;;;;5064449;28;19958;-53
2023/06/29 11:33:33;;;;;;;;;;;24.30;63.00;;;;;;5059112;28;19952;-55
2023/06/29 11:35:58;;;;;;;;;;;24.30;62.90;;;;;;5055134;28;19916;-54
2023/06/29 11:38:24;;;;;;;;;;;24.30;63.00;;;;;;5059376;28;19913;-53
2023/06/29 11:40:49;;;;;;;;;;;24.20;63.00;;;;;;5068888;28;19916;-56
2023/06/29 11:43:15;;;;;;;;;;;24.20;62.90;;;;;;5094614;28;19916;-54
2023/06/29 11:45:40;;;;;;;;;;;24.20;63.40;;;;;;5096480;28;20383;-55
2023/06/29 11:48:07;;;;;;;;;;;24.10;63.10;;;;;;5077339;28;20281;-55
2023/06/29 11:50:33;;;;;;;;;;;24.10;63.00;;;;;;5061837;28;20017;-53
2023/06/29 11:52:58;;;;;;;;;;;24.10;63.20;;;;;;5085567;28;20393;-55
2023/06/29 11:55:24;;;;;;;;;;;24.10;63.50;;;;;;5086183;28;19981;-53
2023/06/29 11:57:50;;;;;;;;;;;24.10;63.70;;;;;;5066848;28;19985;-53
2023/06/29 12:00:16;;;;;;;;;;;24.10;63.60;;;;;;5069247;28;19993;-54
2023/06/29 12:02:42;;;;;;;;;;;24.20;63.50;;;;;;5061114;28;20380;-52
2023/06/29 12:05:08;;;;;;;;;;;24.20;63.40;;;;;;5074492;28;20277;-52
2023/06/29 12:07:34;;;;;;;;;;;24.20;63.40;;;;;;5096716;28;19940;-54
2023/06/29 12:10:01;;;;;;;;;;;24.20;63.40;;;;;;5060854;28;19921;-53
2023/06/29 12:12:26;;;;;;;;;;;24.10;63.40;;;;;;5056362;28;19944;-53
2023/06/29 12:14:52;;;;;;;;;;;24.10;63.60;;;;;;5060595;28;20009;-53
2023/06/29 12:17:20;;;;;;;;;;;24.00;63.60;;;;;;5067173;28;19975;-53
2023/06/29 12:19:50;;;;;;;;;;;24.00;63.80;;;;;;5058014;28;19948;-52
2023/06/29 12:22:16;;;;;;;;;;;23.90;64.10;;;;;;5068534;28;19921;-53
2023/06/29 12:24:42;;;;;;;;;;;23.80;64.70;;;;;;5097883;28;19919;-54
2023/06/29 12:27:07;;;;;;;;;;;23.80;64.60;;;;;;5095998;28;19908;-53
2023/06/29 12:29:32;;;;;;;;;;;23.80;64.50;;;;;;5061500;28;20008;-54
2023/06/29 12:31:59;;;;;;;;;;;23.90;64.50;;;;;;5059397;28;19920;-53
2023/06/29 12:34:25;;;;;;;;;;;24.00;64.50;;;;;;5051858;28;19916;-54
2023/06/29 12:36:50;;;;;;;;;;;24.00;64.50;;;;;;5056775;28;19966;-53
2023/06/29 12:39:19;;;;;;;;;;;24.00;64.60;;;;;;5099519;28;20341;-54
2023/06/29 12:41:44;;;;;;;;;;;24.00;64.50;;;;;;5059125;28;20023;-53
2023/06/29 12:44:10;;;;;;;;;;;24.10;64.60;;;;;;5069366;28;19916;-54
2023/06/29 12:46:35;;;;;;;;;;;24.10;64.90;;;;;;5056226;28;20654;-53
2023/06/29 12:49:01;;;;;;;;;;;24.10;64.80;;;;;;5062637;28;20357;-54
2023/06/29 12:51:26;;;;;;;;;;;24.20;64.70;;;;;;5073399;28;19915;-53
2023/06/29 12:53:52;;;;;;;;;;;24.30;64.90;;;;;;5066744;28;19912;-54
2023/06/29 12:56:17;;;;;;;;;;;24.30;64.60;;;;;;5058776;28;19985;-54
2023/06/29 12:58:42;;;;;;;;;;;24.30;64.80;;;;;;5070445;28;19912;-52
2023/06/29 13:01:08;;;;;;;;;;;24.20;65.00;;;;;;5066909;28;19913;-52
2023/06/29 13:03:33;;;;;;;;;;;24.30;65.00;;;;;;5060356;28;19913;-54
2023/06/29 13:05:59;;;;;;;;;;;24.20;65.00;;;;;;5064800;28;20042;-54
2023/06/29 13:08:25;;;;;;;;;;;24.20;65.50;;;;;;5057747;28;19920;-54
2023/06/29 13:10:51;;;;;;;;;;;24.20;65.70;;;;;;5064932;28;20300;-53
2023/06/29 13:13:17;;;;;;;;;;;24.30;65.40;;;;;;5060720;28;20008;-54
2023/06/29 13:15:44;;;;;;;;;;;24.20;65.40;;;;;;5060109;28;20396;-53
2023/06/29 13:18:10;;;;;;;;;;;24.10;65.70;;;;;;5062406;28;20248;-53
2023/06/29 13:20:35;;;;;;;;;;;24.10;65.90;;;;;;5092340;27;20007;-54
2023/06/29 13:23:01;;;;;;;;;;;24.10;66.00;;;;;;5058921;28;19917;-54
2023/06/29 13:25:26;;;;;;;;;;;24.10;66.00;;;;;;5056596;28;20028;-54
2023/06/29 13:27:52;;;;;;;;;;;24.10;66.10;;;;;;5066149;28;19958;-54
2023/06/29 13:30:18;;;;;;;;;;;24.00;66.20;;;;;;5063587;28;20011;-54
2023/06/29 13:32:44;;;;;;;;;;;24.10;66.40;;;;;;5079554;28;19948;-53
2023/06/29 13:35:09;;;;;;;;;;;24.00;66.50;;;;;;5066221;28;20348;-54
2023/06/29 13:37:35;;;;;;;;;;;24.10;66.40;;;;;;5057731;28;20018;-54
2023/06/29 13:40:00;;;;;;;;;;;24.10;66.80;;;;;;5062577;28;19917;-53
2023/06/29 13:42:26;;;;;;;;;;;24.20;66.50;;;;;;5060151;28;19912;-53
2023/06/29 13:44:51;;;;;;;;;;;24.30;66.50;;;;;;5052745;28;20296;-53
2023/06/29 13:47:21;;;;;;;;;;;24.30;66.00;;;;;;5057237;28;19955;-53
2023/06/29 13:49:46;;;;;;;;;;;24.30;66.00;;;;;;5104796;27;19916;-54
2023/06/29 13:52:12;;;;;;;;;;;24.30;65.70;;;;;;5086873;28;19963;-53
2023/06/29 13:54:37;;;;;;;;;;;24.30;65.70;;;;;;5062696;28;20043;-53
2023/06/29 13:57:03;;;;;;;;;;;24.30;65.50;;;;;;5069963;28;19912;-53
2023/06/29 13:59:29;;;;;;;;;;;24.20;65.60;;;;;;5057622;28;20026;-52
2023/06/29 14:01:54;;;;;;;;;;;24.30;65.70;;;;;;5062512;28;20372;-53
2023/06/29 14:04:20;;;;;;;;;;;24.30;65.60;;;;;;5061846;28;19917;-53
2023/06/29 14:06:46;;;;;;;;;;;24.10;65.80;;;;;;5099330;28;20004;-54
2023/06/29 14:09:12;;;;;;;;;;;24.20;65.70;;;;;;5059886;28;19949;-53